createdAt,value
2023-04-14T00:00:03.550Z,8.67
2023-04-14T00:02:40.492Z,5.47
2023-04-14T00:05:09.336Z,8.37
2023-04-14T00:07:38.668Z,7.80
2023-04-14T00:10:07.476Z,4.57
2023-04-14T00:12:35.616Z,6.57
2023-04-14T00:15:03.526Z,8.40
2023-04-14T00:17:32.432Z,10.80
2023-04-14T00:20:00.387Z,6.17
2023-04-14T00:22:28.230Z,5.93
2023-04-14T00:24:57.588Z,6.00
2023-04-14T00:27:25.653Z,7.67
2023-04-14T00:29:53.517Z,10.77
2023-04-14T00:32:21.542Z,5.77
2023-04-14T00:34:49.583Z,5.80
2023-04-14T00:37:17.587Z,7.67
2023-04-14T00:39:45.613Z,5.00
2023-04-14T00:42:14.832Z,9.23
2023-04-14T00:44:42.631Z,6.70
2023-04-14T00:47:10.609Z,12.47
2023-04-14T00:49:38.799Z,9.20
2023-04-14T00:52:07.103Z,8.30
2023-04-14T00:54:36.914Z,7.97
2023-04-14T00:57:07.390Z,5.47
2023-04-14T00:59:38.218Z,7.60
2023-04-14T01:02:06.467Z,6.37
2023-04-14T01:04:52.068Z,8.97
2023-04-14T01:07:23.341Z,12.23
2023-04-14T01:09:51.760Z,8.63
2023-04-14T01:12:29.665Z,7.33
2023-04-14T01:15:12.022Z,6.67
2023-04-14T01:17:46.923Z,8.60
2023-04-14T01:20:28.281Z,9.33
2023-04-14T01:23:03.061Z,12.07
2023-04-14T01:26:17.956Z,8.20
2023-04-14T01:29:25.773Z,7.13
2023-04-14T01:32:03.030Z,4.77
2023-04-14T01:34:35.137Z,7.10
2023-04-14T01:37:07.716Z,9.50
2023-04-14T01:39:39.681Z,8.30
2023-04-14T01:42:10.153Z,5.47
2023-04-14T01:44:40.425Z,7.27
2023-04-14T01:47:13.709Z,4.80
2023-04-14T01:49:43.700Z,8.83
2023-04-14T01:52:14.359Z,8.00
2023-04-14T01:54:44.249Z,5.83
2023-04-14T01:57:15.708Z,8.53
2023-04-14T01:59:44.933Z,4.87
2023-04-14T02:02:16.365Z,9.20
2023-04-14T02:04:45.697Z,8.77
2023-04-14T02:07:14.369Z,11.47
2023-04-14T02:09:44.352Z,7.27
2023-04-14T02:12:13.401Z,9.03
2023-04-14T02:14:43.273Z,7.00
2023-04-14T02:17:12.525Z,8.83
2023-04-14T02:19:45.007Z,4.17
2023-04-14T02:22:13.142Z,5.37
2023-04-14T02:24:41.373Z,5.80
2023-04-14T02:27:17.203Z,7.37
2023-04-14T02:29:53.107Z,9.63
2023-04-14T02:32:23.439Z,7.77
2023-04-14T02:34:56.676Z,8.60
2023-04-14T02:37:28.371Z,8.63
2023-04-14T02:40:02.533Z,6.23
2023-04-14T02:42:35.611Z,12.27
2023-04-14T02:45:06.850Z,8.27
2023-04-14T02:47:39.160Z,9.23
2023-04-14T02:50:13.732Z,8.53
2023-04-14T02:52:51.352Z,5.93
2023-04-14T02:55:22.428Z,7.47
2023-04-14T02:57:52.989Z,10.43
2023-04-14T03:00:22.746Z,5.93
2023-04-14T03:02:54.475Z,4.73
2023-04-14T03:05:25.594Z,7.93
2023-04-14T03:08:02.286Z,7.10
2023-04-14T03:10:30.411Z,7.87
2023-04-14T03:12:59.678Z,6.67
2023-04-14T03:15:28.097Z,8.73
2023-04-14T03:17:57.758Z,10.63
2023-04-14T03:20:29.985Z,10.60
2023-04-14T03:23:01.942Z,5.00
2023-04-14T03:25:36.600Z,7.53
2023-04-14T03:28:10.679Z,12.53
2023-04-14T03:30:44.404Z,7.33
2023-04-14T03:33:18.118Z,6.40
2023-04-14T03:35:48.250Z,7.30
2023-04-14T03:38:17.304Z,6.63
2023-04-14T03:40:48.399Z,6.83
2023-04-14T03:43:22.796Z,9.47
2023-04-14T03:45:58.136Z,7.43
2023-04-14T03:48:29.873Z,13.23
2023-04-14T03:51:02.249Z,9.10
2023-04-14T03:53:31.432Z,7.23
2023-04-14T03:56:00.944Z,6.17
2023-04-14T03:58:30.559Z,10.73
2023-04-14T04:00:59.091Z,4.80
2023-04-14T04:03:29.137Z,5.73
2023-04-14T04:06:00.693Z,19.50
2023-04-14T04:08:29.796Z,6.70
2023-04-14T04:10:59.112Z,6.90
2023-04-14T04:13:28.786Z,10.03
2023-04-14T04:15:57.300Z,8.07
2023-04-14T04:18:28.087Z,4.30
2023-04-14T04:21:00.868Z,4.80
2023-04-14T04:23:33.955Z,4.73
2023-04-14T04:26:02.096Z,6.30
2023-04-14T04:28:38.132Z,11.27
2023-04-14T04:31:07.224Z,8.10
2023-04-14T04:33:36.069Z,7.37
2023-04-14T04:36:06.599Z,6.10
2023-04-14T04:38:40.623Z,8.67
2023-04-14T04:41:08.601Z,8.30
2023-04-14T04:43:37.606Z,3.67
2023-04-14T04:46:25.881Z,7.20
2023-04-14T04:48:56.392Z,9.40
2023-04-14T04:51:28.805Z,6.30
2023-04-14T04:53:58.267Z,10.17
2023-04-14T04:56:26.232Z,7.17
2023-04-14T04:58:54.418Z,6.27
2023-04-14T05:01:22.411Z,6.03
2023-04-14T05:03:50.495Z,12.07
2023-04-14T05:06:18.452Z,8.00
2023-04-14T05:08:47.804Z,10.70
2023-04-14T05:11:15.677Z,11.37
2023-04-14T05:13:43.640Z,11.40
2023-04-14T05:16:13.680Z,9.77
2023-04-14T05:18:42.971Z,8.57
2023-04-14T05:21:13.690Z,9.97
2023-04-14T05:23:43.675Z,10.53
2023-04-14T05:26:38.871Z,4.40
2023-04-14T05:29:02.224Z,12.53
2023-04-14T05:31:30.458Z,6.37
2023-04-14T05:33:58.585Z,7.50
2023-04-14T05:36:27.429Z,8.07
2023-04-14T05:38:55.360Z,5.93
2023-04-14T05:41:24.651Z,9.23
2023-04-14T05:43:52.522Z,10.23
2023-04-14T05:46:20.739Z,25.43
2023-04-14T05:48:48.525Z,24.20
2023-04-14T05:51:16.684Z,16.73
2023-04-14T05:53:44.530Z,15.47
2023-04-14T05:56:12.508Z,11.83
2023-04-14T05:58:41.724Z,26.50
2023-04-14T06:01:09.601Z,17.87
2023-04-14T06:03:40.073Z,15.07
2023-04-14T06:06:08.784Z,17.50
2023-04-14T06:08:36.668Z,17.83
2023-04-14T06:11:05.290Z,18.10
2023-04-14T06:13:34.936Z,10.73
2023-04-14T06:16:05.939Z,9.27
2023-04-14T06:18:33.991Z,10.87
2023-04-14T06:21:02.971Z,7.93
2023-04-14T06:23:31.615Z,5.77
2023-04-14T06:25:59.580Z,8.13
2023-04-14T06:28:27.466Z,11.90
2023-04-14T06:30:55.434Z,11.07
2023-04-14T06:33:24.933Z,8.23
2023-04-14T06:35:52.849Z,9.83
2023-04-14T06:38:20.630Z,10.67
2023-04-14T06:40:48.613Z,6.60
2023-04-14T06:43:17.809Z,10.50
2023-04-14T06:45:45.747Z,6.77
2023-04-14T06:48:13.984Z,9.43
2023-04-14T06:50:44.300Z,7.17
2023-04-14T06:53:12.499Z,5.97
2023-04-14T06:55:42.195Z,4.17
2023-04-14T06:58:10.083Z,9.23
2023-04-14T07:00:38.086Z,7.30
2023-04-14T07:03:06.444Z,6.23
2023-04-14T07:05:34.428Z,10.33
2023-04-14T07:08:03.786Z,6.87
2023-04-14T07:10:31.766Z,8.50
2023-04-14T07:12:59.692Z,7.03
2023-04-14T07:15:27.623Z,20.27
2023-04-14T07:17:57.317Z,8.40
2023-04-14T07:20:27.186Z,6.07
2023-04-14T07:22:55.565Z,2.57
2023-04-14T07:25:24.883Z,4.37
2023-04-14T07:28:02.740Z,7.33
2023-04-14T07:30:31.918Z,4.83
2023-04-14T07:33:02.271Z,5.90
2023-04-14T07:35:30.299Z,5.67
2023-04-14T07:37:58.202Z,9.53
2023-04-14T07:40:27.511Z,5.20
2023-04-14T07:42:55.498Z,5.53
2023-04-14T07:45:23.637Z,3.47
2023-04-14T07:47:52.199Z,3.13
2023-04-14T07:50:20.451Z,4.60
2023-04-14T07:52:48.360Z,5.40
2023-04-14T07:55:16.597Z,6.17
2023-04-14T07:57:45.944Z,5.23
2023-04-14T08:00:15.543Z,2.97
2023-04-14T08:02:43.852Z,2.53
2023-04-14T08:05:12.083Z,4.07
2023-04-14T08:07:40.103Z,8.87
2023-04-14T08:10:08.810Z,4.43
2023-04-14T08:12:36.834Z,8.93
2023-04-14T08:15:07.004Z,3.97
2023-04-14T08:17:34.918Z,6.63
2023-04-14T08:20:03.024Z,4.53
2023-04-14T08:22:30.999Z,2.20
2023-04-14T08:24:58.878Z,8.77
2023-04-14T08:27:26.775Z,3.63
2023-04-14T08:29:54.800Z,4.97
2023-04-14T08:32:24.269Z,5.87
2023-04-14T08:35:39.581Z,6.23
2023-04-14T08:37:44.350Z,2.90
2023-04-14T08:40:13.212Z,3.93
2023-04-14T08:42:41.091Z,3.93
2023-04-14T08:45:09.654Z,6.83
2023-04-14T08:47:41.335Z,4.73
2023-04-14T08:50:16.619Z,4.27
2023-04-14T08:52:46.924Z,3.03
2023-04-14T08:55:16.131Z,4.67
2023-04-14T08:57:46.459Z,6.07
2023-04-14T09:00:15.908Z,4.33
2023-04-14T09:02:46.988Z,7.70
2023-04-14T09:05:15.463Z,7.13
2023-04-14T09:07:43.743Z,6.77
2023-04-14T09:10:12.844Z,5.10
2023-04-14T09:12:41.930Z,6.00
2023-04-14T09:15:11.402Z,5.20
2023-04-14T09:17:39.419Z,4.20
2023-04-14T09:20:38.783Z,4.50
2023-04-14T09:22:57.806Z,5.10
2023-04-14T09:25:26.252Z,8.07
2023-04-14T09:27:54.312Z,5.70
2023-04-14T09:30:22.527Z,5.83
2023-04-14T09:32:53.582Z,7.53
2023-04-14T09:35:23.077Z,7.57
2023-04-14T09:37:51.068Z,8.73
2023-04-14T09:40:32.006Z,4.63
2023-04-14T09:43:00.475Z,5.10
2023-04-14T09:45:42.567Z,6.47
2023-04-14T09:48:12.879Z,2.30
2023-04-14T09:51:06.668Z,3.03
2023-04-14T09:53:35.999Z,8.20
2023-04-14T09:56:06.258Z,7.47
2023-04-14T09:58:35.879Z,3.83
2023-04-14T10:01:04.580Z,6.90
2023-04-14T10:03:39.449Z,8.87
2023-04-14T10:06:10.708Z,7.43
2023-04-14T10:08:41.061Z,6.27
2023-04-14T10:11:17.171Z,4.87
2023-04-14T10:13:45.658Z,5.20
2023-04-14T10:16:13.649Z,4.83
2023-04-14T10:18:41.546Z,4.23
2023-04-14T10:21:11.423Z,5.43
2023-04-14T10:23:41.296Z,8.77
2023-04-14T10:26:09.916Z,4.67
2023-04-14T10:28:40.835Z,2.67
2023-04-14T10:31:12.346Z,4.17
2023-04-14T10:33:42.062Z,10.10
2023-04-14T10:36:11.581Z,5.17
2023-04-14T10:38:44.087Z,5.17
2023-04-14T10:41:12.943Z,4.67
2023-04-14T10:43:41.741Z,8.43
2023-04-14T10:46:11.076Z,6.70
2023-04-14T10:48:40.401Z,5.63
2023-04-14T10:51:11.816Z,3.87
2023-04-14T10:53:45.833Z,2.43
2023-04-14T10:56:14.302Z,5.97
2023-04-14T10:58:42.161Z,4.00
2023-04-14T11:01:24.299Z,3.67
2023-04-14T11:03:52.626Z,6.67
2023-04-14T11:06:57.171Z,11.37
2023-04-14T11:09:34.212Z,5.07
2023-04-14T11:12:07.335Z,5.23
2023-04-14T11:14:36.593Z,6.43
2023-04-14T11:17:06.393Z,5.60
2023-04-14T11:19:34.498Z,6.57
2023-04-14T11:22:03.801Z,4.53
2023-04-14T11:24:32.468Z,6.17
2023-04-14T11:27:00.634Z,3.87
2023-04-14T11:29:28.492Z,2.20
2023-04-14T11:32:04.090Z,5.10
2023-04-14T11:34:32.768Z,3.87
2023-04-14T11:37:05.038Z,5.43
2023-04-14T11:39:35.259Z,4.10
2023-04-14T11:42:03.538Z,4.20
2023-04-14T11:44:31.836Z,3.53
2023-04-14T11:46:59.791Z,3.23
2023-04-14T11:49:36.591Z,3.70
2023-04-14T11:52:07.767Z,3.13
2023-04-14T11:54:37.141Z,6.43
2023-04-14T11:57:10.976Z,6.30
2023-04-14T11:59:43.591Z,3.13
2023-04-14T12:02:18.235Z,2.93
2023-04-14T12:04:47.230Z,5.27
2023-04-14T12:07:18.125Z,3.43
2023-04-14T12:09:48.870Z,2.90
2023-04-14T12:12:18.105Z,5.83
2023-04-14T12:14:47.295Z,3.93
2023-04-14T12:17:16.402Z,4.07
2023-04-14T12:19:45.638Z,3.60
2023-04-14T12:22:13.475Z,5.23
2023-04-14T12:24:44.135Z,6.83
2023-04-14T12:27:12.811Z,3.30
2023-04-14T12:29:44.784Z,3.50
2023-04-14T12:32:13.142Z,2.60
2023-04-14T12:34:41.284Z,2.20
2023-04-14T12:37:10.819Z,12.20
2023-04-14T12:39:57.578Z,3.70
2023-04-14T12:42:25.957Z,2.23
2023-04-14T12:44:58.900Z,3.40
2023-04-14T12:47:31.424Z,1.47
2023-04-14T12:50:01.404Z,4.73
2023-04-14T12:52:37.035Z,2.77
2023-04-14T12:55:08.925Z,3.83
2023-04-14T12:57:37.127Z,8.13
2023-04-14T13:00:05.833Z,3.30
2023-04-14T13:02:35.580Z,2.97
2023-04-14T13:05:05.027Z,3.20
2023-04-14T13:07:33.097Z,2.33
2023-04-14T13:10:01.291Z,3.07
2023-04-14T13:12:30.677Z,4.10
2023-04-14T13:14:58.540Z,3.80
2023-04-14T13:17:26.751Z,1.67
2023-04-14T13:19:56.936Z,5.13
2023-04-14T13:22:25.542Z,4.03
2023-04-14T13:24:53.815Z,1.43
2023-04-14T13:27:21.775Z,3.67
2023-04-14T13:29:51.170Z,3.83
2023-04-14T13:32:19.477Z,0.87
2023-04-14T13:34:47.856Z,4.17
2023-04-14T13:37:16.740Z,2.87
2023-04-14T13:39:44.965Z,2.33
2023-04-14T13:42:13.081Z,1.50
2023-04-14T13:44:41.505Z,3.37
2023-04-14T13:47:10.926Z,3.00
2023-04-14T13:49:38.949Z,4.87
2023-04-14T13:52:07.697Z,4.30
2023-04-14T13:54:36.344Z,3.43
2023-04-14T13:57:04.445Z,6.00
2023-04-14T13:59:33.121Z,1.73
2023-04-14T14:02:01.338Z,2.03
2023-04-14T14:04:30.931Z,2.93
2023-04-14T14:06:59.521Z,2.77
2023-04-14T14:09:27.629Z,3.07
2023-04-14T14:11:56.077Z,1.63
2023-04-14T14:14:24.181Z,3.03
2023-04-14T14:16:52.308Z,3.77
2023-04-14T14:19:20.383Z,4.60
2023-04-14T14:21:49.715Z,3.97
2023-04-14T14:24:17.847Z,1.80
2023-04-14T14:26:45.915Z,4.53
2023-04-14T14:29:14.025Z,3.37
2023-04-14T14:31:42.097Z,1.37
2023-04-14T14:34:10.220Z,7.67
2023-04-14T14:36:38.331Z,3.20
2023-04-14T14:39:09.176Z,3.57
2023-04-14T14:41:37.459Z,7.60
2023-04-14T14:44:05.740Z,3.07
2023-04-14T14:46:34.717Z,5.73
2023-04-14T14:49:03.177Z,2.80
2023-04-14T14:51:31.804Z,4.83
2023-04-14T14:54:09.333Z,8.23
2023-04-14T14:56:39.611Z,3.83
2023-04-14T14:59:08.459Z,2.77
2023-04-14T15:01:36.690Z,2.73
2023-04-14T15:04:06.366Z,6.27
2023-04-14T15:06:35.933Z,4.77
2023-04-14T15:09:05.470Z,1.53
2023-04-14T15:11:33.384Z,5.07
2023-04-14T15:14:03.389Z,2.10
2023-04-14T15:16:31.699Z,2.13
2023-04-14T15:18:59.630Z,1.37
2023-04-14T15:21:27.537Z,3.67
2023-04-14T15:23:55.428Z,5.47
2023-04-14T15:26:23.362Z,6.67
2023-04-14T15:28:51.259Z,6.20
2023-04-14T15:31:20.793Z,3.13
2023-04-14T15:33:48.921Z,3.23
2023-04-14T15:36:17.218Z,3.10
2023-04-14T15:38:46.969Z,2.53
2023-04-14T15:41:15.523Z,3.97
2023-04-14T15:43:43.522Z,3.27
2023-04-14T15:46:13.132Z,1.73
2023-04-14T15:48:42.618Z,3.70
2023-04-14T15:51:10.456Z,5.03
2023-04-14T15:53:38.474Z,4.33
2023-04-14T15:56:06.858Z,4.07
2023-04-14T15:58:35.336Z,3.73
2023-04-14T16:01:07.621Z,2.37
2023-04-14T16:03:36.251Z,5.40
2023-04-14T16:06:07.492Z,4.83
2023-04-14T16:08:36.359Z,6.40
2023-04-14T16:11:04.317Z,4.23
2023-04-14T16:13:32.240Z,4.27
2023-04-14T16:16:00.323Z,3.23
2023-04-14T16:18:28.341Z,4.87
2023-04-14T16:20:56.305Z,2.87
2023-04-14T16:23:25.695Z,3.90
2023-04-14T16:25:53.695Z,2.77
2023-04-14T16:28:22.900Z,3.87
2023-04-14T16:30:51.124Z,4.50
2023-04-14T16:33:19.117Z,5.30
2023-04-14T16:35:47.069Z,4.43
2023-04-14T16:38:15.046Z,5.37
2023-04-14T16:40:44.749Z,3.23
2023-04-14T16:43:13.868Z,5.10
2023-04-14T16:45:42.118Z,4.17
2023-04-14T16:48:10.542Z,3.10
2023-04-14T16:50:40.277Z,5.40
2023-04-14T16:53:08.231Z,3.93
2023-04-14T16:55:36.203Z,4.70
2023-04-14T16:58:05.719Z,4.30
2023-04-14T17:00:33.846Z,4.67
2023-04-14T17:03:02.370Z,6.13
2023-04-14T17:05:31.339Z,1.37
2023-04-14T17:07:59.494Z,6.50
2023-04-14T17:10:29.712Z,3.17
2023-04-14T17:12:57.831Z,3.10
2023-04-14T17:15:27.787Z,3.13
2023-04-14T17:17:56.035Z,2.53
2023-04-14T17:20:25.635Z,5.60
2023-04-14T17:22:54.533Z,5.97
2023-04-14T17:25:22.652Z,2.17
2023-04-14T17:27:50.759Z,3.50
2023-04-14T17:30:19.116Z,4.17
2023-04-14T17:32:49.346Z,5.27
2023-04-14T17:35:17.688Z,8.10
2023-04-14T17:37:45.867Z,4.67
2023-04-14T17:40:15.979Z,5.87
2023-04-14T17:42:44.076Z,4.23
2023-04-14T17:45:13.288Z,3.37
2023-04-14T17:47:41.753Z,4.47
2023-04-14T17:50:11.906Z,4.30
2023-04-14T17:52:40.110Z,5.17
2023-04-14T17:55:10.313Z,3.53
2023-04-14T17:57:38.862Z,3.63
2023-04-14T18:00:09.462Z,4.37
2023-04-14T18:02:43.350Z,5.87
2023-04-14T18:05:13.225Z,5.10
2023-04-14T18:07:42.845Z,5.33
2023-04-14T18:10:11.180Z,7.00
2023-04-14T18:12:39.235Z,4.83
2023-04-14T18:15:08.315Z,3.63
2023-04-14T18:17:36.462Z,5.07
2023-04-14T18:20:04.821Z,11.70
2023-04-14T18:22:34.866Z,9.00
2023-04-14T18:25:03.271Z,4.80
2023-04-14T18:30:02.955Z,4.47
2023-04-14T18:32:31.480Z,7.80
2023-04-14T18:34:59.812Z,6.97
2023-04-14T18:37:28.142Z,9.70
2023-04-14T18:39:57.861Z,8.20
2023-04-14T18:42:27.390Z,27.50
2023-04-14T18:44:55.526Z,20.43
2023-04-14T18:47:23.977Z,15.60
2023-04-14T18:49:52.392Z,13.67
2023-04-14T18:52:20.640Z,12.23
2023-04-14T18:54:49.477Z,10.30
2023-04-14T18:57:19.217Z,6.70
2023-04-14T18:59:47.771Z,9.97
2023-04-14T19:02:16.036Z,8.60
2023-04-14T19:04:44.964Z,9.83
2023-04-14T19:07:13.035Z,19.87
2023-04-14T19:09:41.296Z,14.17
2023-04-14T19:12:18.434Z,18.33
2023-04-14T19:14:56.898Z,18.33
2023-04-14T19:17:25.106Z,18.37
2023-04-14T19:19:53.164Z,12.20
2023-04-14T19:22:21.307Z,11.90
2023-04-14T19:24:51.011Z,11.23
2023-04-14T19:27:19.401Z,8.70
2023-04-14T19:29:47.612Z,9.20
2023-04-14T19:32:17.816Z,12.67
2023-04-14T19:34:46.083Z,18.20
2023-04-14T19:37:14.973Z,27.20
2023-04-14T19:39:43.016Z,28.97
2023-04-14T19:42:11.309Z,26.33
2023-04-14T19:44:39.446Z,18.37
2023-04-14T19:47:07.691Z,11.30
2023-04-14T19:49:37.592Z,9.97
2023-04-14T19:52:06.127Z,9.47
2023-04-14T19:54:34.561Z,13.83
2023-04-14T19:57:03.485Z,11.47
2023-04-14T19:59:32.868Z,9.30
2023-04-14T20:02:01.863Z,9.83
2023-04-14T20:04:30.077Z,9.60
2023-04-14T20:06:59.998Z,16.20
2023-04-14T20:09:28.103Z,11.17
2023-04-14T20:11:56.085Z,11.73
2023-04-14T20:14:24.213Z,8.20
2023-04-14T20:16:52.329Z,12.30
2023-04-14T20:19:21.154Z,14.97
2023-04-14T20:21:49.677Z,10.70
2023-04-14T20:24:19.018Z,14.13
2023-04-14T20:26:47.254Z,12.73
2023-04-14T20:29:16.264Z,8.43
2023-04-14T20:31:44.531Z,7.37
2023-04-14T20:34:13.412Z,10.60
2023-04-14T20:36:41.918Z,10.60
2023-04-14T20:39:09.853Z,8.50
2023-04-14T20:41:39.249Z,7.67
2023-04-14T20:44:07.472Z,7.40
2023-04-14T20:46:35.367Z,10.40
2023-04-14T20:49:03.757Z,7.60
2023-04-14T20:51:32.603Z,9.73
2023-04-14T20:54:01.274Z,16.87
2023-04-14T20:56:30.762Z,9.17
2023-04-14T20:59:00.445Z,9.57
2023-04-14T21:01:28.794Z,10.73
2023-04-14T21:03:57.270Z,8.47
2023-04-14T21:06:25.817Z,17.97
2023-04-14T21:08:53.722Z,15.57
2023-04-14T21:11:21.909Z,12.57
2023-04-14T21:15:30.410Z,10.63
2023-04-14T21:16:35.255Z,11.43
2023-04-14T21:19:04.335Z,10.20
2023-04-14T21:21:33.093Z,13.27
2023-04-14T21:24:01.581Z,11.97
2023-04-14T21:26:29.550Z,14.37
2023-04-14T21:28:57.617Z,15.53
2023-04-14T21:31:25.952Z,15.10
2023-04-14T21:33:55.610Z,15.20
2023-04-14T21:36:24.523Z,12.30
2023-04-14T21:38:52.565Z,14.50
2023-04-14T21:41:20.971Z,13.37
2023-04-14T21:43:48.934Z,15.37
2023-04-14T21:46:17.066Z,16.53
2023-04-14T21:48:45.068Z,13.10
2023-04-14T21:51:14.828Z,12.13
2023-04-14T21:53:42.784Z,12.27
2023-04-14T21:56:12.832Z,16.67
2023-04-14T21:58:41.359Z,11.73
2023-04-14T22:01:10.382Z,11.87
2023-04-14T22:03:40.599Z,9.20
2023-04-14T22:06:10.028Z,9.57
2023-04-14T22:08:40.270Z,11.77
2023-04-14T22:11:08.711Z,8.47
2023-04-14T22:13:37.073Z,9.07
2023-04-14T22:16:05.416Z,11.77
2023-04-14T22:18:33.518Z,12.53
2023-04-14T22:21:01.588Z,7.57
2023-04-14T22:23:29.692Z,9.03
2023-04-14T22:25:59.074Z,7.47
2023-04-14T22:28:27.255Z,11.63
2023-04-14T22:30:55.353Z,12.00
2023-04-14T22:33:23.383Z,15.47
2023-04-14T22:35:51.719Z,9.17
2023-04-14T22:38:19.700Z,11.03
2023-04-14T22:40:49.289Z,12.17
2023-04-14T22:43:19.847Z,10.33
2023-04-14T22:45:48.295Z,7.90
2023-04-14T22:48:16.470Z,9.17
2023-04-14T22:50:44.388Z,9.57
2023-04-14T22:53:12.361Z,8.23
2023-04-14T22:55:40.534Z,6.47
2023-04-14T22:58:09.538Z,7.70
2023-04-14T23:00:38.994Z,9.83
2023-04-14T23:03:09.788Z,9.60
2023-04-14T23:05:38.352Z,9.77
2023-04-14T23:08:06.995Z,6.13
2023-04-14T23:10:35.056Z,8.57
2023-04-14T23:13:03.533Z,6.13
2023-04-14T23:15:31.576Z,6.50
2023-04-14T23:18:01.670Z,7.70
2023-04-14T23:20:30.337Z,9.30
2023-04-14T23:22:58.378Z,6.60
2023-04-14T23:25:26.722Z,7.77
2023-04-14T23:27:54.840Z,7.63
2023-04-14T23:30:22.879Z,5.57
2023-04-14T23:32:51.014Z,7.27
2023-04-14T23:35:20.450Z,10.07
2023-04-14T23:37:48.455Z,6.50
2023-04-14T23:40:16.636Z,8.57
2023-04-14T23:42:44.936Z,6.77
2023-04-14T23:45:12.957Z,4.33
2023-04-14T23:47:41.447Z,5.93
2023-04-14T23:50:10.043Z,6.30
2023-04-14T23:52:39.610Z,10.13
2023-04-14T23:55:08.229Z,8.20
2023-04-14T23:57:36.336Z,9.23
